Time;durP1;ratioP1;P1;durP2;ratioP2;P2;SDS_P1;SDS_P2;PMS_P1;PMS_P2;Temp;Humidity;BMP_temperature;BMP_pressure;BME280_temperature;BME280_humidity;BME280_pressure;Samples;Min_cycle;Max_cycle;Signal;HPM_P1;HPM_P2
2023/04/07 00:01:32;;;;;;;18.02;14.18;;;7.20;99.90;;;;;;5035505;28;20041;-85
2023/04/07 00:04:00;;;;;;;20.63;15.77;;;7.20;99.90;;;;;;5041140;28;20082;-85
2023/04/07 00:06:26;;;;;;;18.80;14.85;;;7.10;99.90;;;;;;5066006;28;20088;-85
2023/04/07 00:08:52;;;;;;;18.88;15.40;;;7.10;99.90;;;;;;5066689;28;20166;-86
2023/04/07 00:11:17;;;;;;;20.35;15.27;;;7.90;99.90;;;;;;5060319;28;20041;-86
2023/04/07 00:13:43;;;;;;;20.75;16.17;;;7.80;99.90;;;;;;5059322;28;20492;-86
2023/04/07 00:16:09;;;;;;;20.77;16.38;;;7.20;99.90;;;;;;5067697;28;20043;-86
2023/04/07 00:18:34;;;;;;;19.65;15.23;;;7.20;99.90;;;;;;5068072;28;20045;-87
2023/04/07 00:21:00;;;;;;;20.85;15.75;;;7.30;99.90;;;;;;5067825;28;20079;-86
2023/04/07 00:23:26;;;;;;;21.23;15.85;;;7.30;99.90;;;;;;5067427;28;20040;-85
2023/04/07 00:25:51;;;;;;;20.63;15.23;;;7.20;99.90;;;;;;5066392;28;20526;-86
2023/04/07 00:28:17;;;;;;;22.63;16.83;;;7.20;99.90;;;;;;5065827;28;20127;-85
2023/04/07 00:30:42;;;;;;;23.08;16.75;;;7.20;99.90;;;;;;5064809;28;20193;-86
2023/04/07 00:33:08;;;;;;;21.38;16.20;;;7.30;99.90;;;;;;5042766;28;20252;-85
2023/04/07 00:35:33;;;;;;;22.20;16.63;;;7.20;99.90;;;;;;5062801;28;20037;-85
2023/04/07 00:37:59;;;;;;;22.00;16.70;;;7.20;99.90;;;;;;5061414;28;20045;-85
2023/04/07 00:40:25;;;;;;;22.50;17.20;;;7.20;99.90;;;;;;5065630;28;20111;-86
2023/04/07 00:42:51;;;;;;;21.77;16.75;;;7.20;99.90;;;;;;5063199;28;20107;-85
2023/04/07 00:45:16;;;;;;;22.48;17.02;;;7.20;99.90;;;;;;5070446;28;20043;-86
2023/04/07 00:47:42;;;;;;;23.00;17.20;;;7.20;99.90;;;;;;5065148;28;20032;-85
2023/04/07 00:50:08;;;;;;;21.30;16.65;;;7.20;99.90;;;;;;5060005;28;20051;-86
2023/04/07 00:52:35;;;;;;;21.90;16.38;;;7.20;99.90;;;;;;5061032;28;20055;-85
2023/04/07 00:55:00;;;;;;;24.30;18.08;;;7.20;99.90;;;;;;5060720;28;20033;-86
2023/04/07 00:57:26;;;;;;;24.92;18.65;;;7.30;99.90;;;;;;5062011;28;20111;-86
2023/04/07 00:59:52;;;;;;;23.30;17.50;;;7.20;99.90;;;;;;5061314;28;20521;-86
2023/04/07 01:02:20;;;;;;;22.95;17.27;;;7.20;99.90;;;;;;5068814;28;20040;-86
2023/04/07 01:04:53;;;;;;;23.92;17.98;;;7.20;99.90;;;;;;5038525;28;20084;-86
2023/04/07 01:07:35;;;;;;;23.17;17.27;;;7.20;99.90;;;;;;5063075;28;20389;-86
2023/04/07 01:10:10;;;;;;;23.65;17.45;;;7.20;99.90;;;;;;5065408;28;20048;-87
2023/04/07 01:12:50;;;;;;;23.45;17.60;;;7.20;99.90;;;;;;5044529;28;20131;-85
2023/04/07 01:15:20;;;;;;;22.85;17.70;;;7.20;99.90;;;;;;5059179;28;20044;-85
2023/04/07 01:17:58;;;;;;;22.45;17.60;;;7.20;99.90;;;;;;5063948;28;20041;-85
2023/04/07 01:20:26;;;;;;;22.27;17.55;;;7.20;99.90;;;;;;5065870;28;20048;-85
2023/04/07 01:22:58;;;;;;;22.05;16.73;;;7.20;99.90;;;;;;5058388;28;20060;-86
2023/04/07 01:25:38;;;;;;;23.45;18.27;;;7.20;99.90;;;;;;5065899;28;20036;-85
2023/04/07 01:28:04;;;;;;;23.92;18.33;;;7.20;99.90;;;;;;5064786;28;20336;-85
2023/04/07 01:30:33;;;;;;;23.92;18.70;;;7.20;99.90;;;;;;5063303;28;20045;-86
2023/04/07 01:33:00;;;;;;;23.83;18.08;;;7.20;99.90;;;;;;5065759;28;20044;-86
2023/04/07 01:35:29;;;;;;;22.35;17.38;;;7.20;99.90;;;;;;5068180;28;20024;-86
2023/04/07 01:37:56;;;;;;;23.80;17.67;;;7.20;99.90;;;;;;5059873;28;20474;-86
2023/04/07 01:40:24;;;;;;;22.83;18.08;;;7.20;99.90;;;;;;5059353;28;20500;-86
2023/04/07 01:42:51;;;;;;;23.55;17.50;;;7.20;99.90;;;;;;5062266;28;20041;-86
2023/04/07 01:45:17;;;;;;;22.90;17.33;;;7.20;99.90;;;;;;5073419;28;20025;-86
2023/04/07 01:47:44;;;;;;;21.73;16.65;;;7.40;99.90;;;;;;5069878;28;20581;-87
2023/04/07 01:50:11;;;;;;;22.50;17.23;;;7.20;99.90;;;;;;5069534;28;20036;-85
2023/04/07 01:52:38;;;;;;;22.40;16.67;;;7.20;99.90;;;;;;5067359;28;20048;-86
2023/04/07 01:55:05;;;;;;;22.67;17.30;;;7.60;99.90;;;;;;5071411;28;20106;-86
2023/04/07 01:57:30;;;;;;;23.80;17.35;;;7.30;99.90;;;;;;5070217;28;20565;-86
2023/04/07 01:59:56;;;;;;;21.60;16.58;;;7.20;99.90;;;;;;5070281;28;20040;-86
2023/04/07 02:02:21;;;;;;;21.60;16.75;;;7.20;99.90;;;;;;5068185;28;20103;-85
2023/04/07 02:04:58;;;;;;;22.48;17.40;;;7.20;99.90;;;;;;5049043;28;20032;-86
2023/04/07 02:07:50;;;;;;;21.98;16.90;;;7.20;99.90;;;;;;5065239;28;20044;-86
2023/04/07 02:10:18;;;;;;;22.67;16.70;;;7.20;99.90;;;;;;5060652;28;20036;-85
2023/04/07 02:12:46;;;;;;;23.77;16.92;;;7.10;99.90;;;;;;5069583;28;20032;-86
2023/04/07 02:15:12;;;;;;;22.30;17.58;;;7.20;99.90;;;;;;5071911;28;20111;-86
2023/04/07 02:17:43;;;;;;;23.48;17.42;;;7.10;99.90;;;;;;5043623;28;20088;-86
2023/04/07 02:20:10;;;;;;;21.98;16.98;;;7.20;99.90;;;;;;5063240;28;20080;-85
2023/04/07 02:22:38;;;;;;;24.10;18.00;;;7.20;99.90;;;;;;5066161;28;20032;-86
2023/04/07 02:25:29;;;;;;;21.35;17.05;;;7.20;99.90;;;;;;5068941;28;20449;-86
2023/04/07 02:27:56;;;;;;;21.83;17.10;;;7.20;99.90;;;;;;5063961;28;20047;-86
2023/04/07 02:30:23;;;;;;;23.13;16.80;;;7.20;99.90;;;;;;5067200;28;20041;-86
2023/04/07 02:32:48;;;;;;;21.98;17.23;;;7.20;99.90;;;;;;5065790;28;20072;-86
2023/04/07 02:35:18;;;;;;;22.90;16.55;;;7.20;99.90;;;;;;5042102;28;20029;-86
2023/04/07 02:37:45;;;;;;;23.15;17.83;;;7.20;99.90;;;;;;5068377;28;20036;-85
2023/04/07 02:40:11;;;;;;;22.38;17.08;;;7.20;99.90;;;;;;5069994;28;20037;-86
2023/04/07 02:42:37;;;;;;;21.80;16.95;;;7.20;99.90;;;;;;5052995;28;20044;-86
2023/04/07 02:45:04;;;;;;;22.75;17.02;;;7.10;99.90;;;;;;5064724;28;20505;-86
2023/04/07 02:47:30;;;;;;;22.05;17.42;;;7.20;99.90;;;;;;5067143;28;20044;-86
2023/04/07 02:49:55;;;;;;;22.75;16.90;;;7.10;99.90;;;;;;5066060;28;20049;-86
2023/04/07 02:52:21;;;;;;;22.52;17.02;;;7.20;99.90;;;;;;5066121;28;20039;-87
2023/04/07 02:54:47;;;;;;;22.38;17.23;;;7.20;99.90;;;;;;5064897;28;20086;-86
2023/04/07 02:57:13;;;;;;;21.63;17.08;;;7.20;99.90;;;;;;5062400;28;20565;-86
2023/04/07 02:59:39;;;;;;;22.70;16.98;;;7.20;99.90;;;;;;5064550;28;20504;-85
2023/04/07 03:02:04;;;;;;;21.50;16.98;;;7.10;99.90;;;;;;5069010;28;20033;-85
2023/04/07 03:04:30;;;;;;;21.85;17.30;;;7.20;99.90;;;;;;5060874;28;20047;-86
2023/04/07 03:06:56;;;;;;;21.85;16.17;;;7.10;99.90;;;;;;5050362;28;20040;-86
2023/04/07 03:09:22;;;;;;;22.73;17.38;;;7.10;99.90;;;;;;5064386;28;20518;-87
2023/04/07 03:11:47;;;;;;;22.05;17.10;;;7.20;99.90;;;;;;5066955;28;20033;-86
2023/04/07 03:14:13;;;;;;;22.90;17.58;;;7.10;99.90;;;;;;5066578;28;20028;-85
2023/04/07 03:16:38;;;;;;;22.67;17.73;;;7.10;99.90;;;;;;5066335;28;20077;-86
2023/04/07 03:19:04;;;;;;;22.40;16.90;;;7.10;99.90;;;;;;5068895;28;20499;-85
2023/04/07 03:21:30;;;;;;;22.23;16.90;;;7.20;99.90;;;;;;5063397;28;20449;-86
2023/04/07 03:23:56;;;;;;;21.75;17.50;;;7.80;99.90;;;;;;5066101;28;20518;-86
2023/04/07 03:26:22;;;;;;;22.65;17.92;;;7.10;99.90;;;;;;5068369;28;20041;-85
2023/04/07 03:28:47;;;;;;;22.35;17.30;;;7.10;99.90;;;;;;5062437;28;20037;-86
2023/04/07 03:31:13;;;;;;;22.48;17.77;;;7.10;99.90;;;;;;5062528;28;20048;-85
2023/04/07 03:33:38;;;;;;;24.45;17.90;;;7.10;99.90;;;;;;5065647;28;20496;-86
2023/04/07 03:36:05;;;;;;;20.77;16.90;;;7.10;99.90;;;;;;5068755;28;20055;-85
2023/04/07 03:38:30;;;;;;;24.58;18.02;;;7.10;99.90;;;;;;5066446;28;20143;-86
2023/04/07 03:40:56;;;;;;;22.08;16.98;;;7.10;99.90;;;;;;5065568;28;20039;-86
2023/04/07 03:43:22;;;;;;;22.42;17.17;;;7.10;99.90;;;;;;5066664;28;20037;-86
2023/04/07 03:45:47;;;;;;;22.15;17.20;;;7.10;99.90;;;;;;5062281;28;20036;-86
2023/04/07 03:48:13;;;;;;;22.25;17.17;;;7.10;99.90;;;;;;5061987;28;20041;-85
2023/04/07 03:50:39;;;;;;;21.63;17.13;;;7.10;99.90;;;;;;5060790;28;20443;-86
2023/04/07 03:53:05;;;;;;;21.15;16.50;;;7.10;99.90;;;;;;5062910;28;20044;-86
2023/04/07 03:55:32;;;;;;;21.27;16.52;;;7.10;99.90;;;;;;5064382;28;20040;-86
2023/04/07 03:57:57;;;;;;;20.77;16.13;;;7.10;99.90;;;;;;5062066;28;20036;-85
2023/04/07 04:00:23;;;;;;;22.67;17.17;;;7.10;99.90;;;;;;5064695;28;20098;-86
2023/04/07 04:02:49;;;;;;;20.73;16.27;;;7.10;99.90;;;;;;5058802;28;20526;-85
2023/04/07 04:05:14;;;;;;;23.67;17.10;;;7.10;99.90;;;;;;5058269;28;20396;-86
2023/04/07 04:07:40;;;;;;;22.08;16.77;;;7.10;99.90;;;;;;5064563;28;20134;-85
2023/04/07 04:10:06;;;;;;;21.30;16.60;;;7.10;99.90;;;;;;5062999;28;20036;-86
2023/04/07 04:12:32;;;;;;;21.95;17.15;;;7.10;99.90;;;;;;5039585;28;20037;-85
2023/04/07 04:14:57;;;;;;;22.52;16.80;;;7.00;99.90;;;;;;5066697;28;20033;-85
2023/04/07 04:17:24;;;;;;;21.00;16.63;;;7.10;99.90;;;;;;5064971;28;20036;-85
2023/04/07 04:19:50;;;;;;;22.80;17.48;;;7.00;99.90;;;;;;5062637;28;20053;-85
2023/04/07 04:22:16;;;;;;;22.40;17.15;;;7.00;99.90;;;;;;5064786;28;20356;-86
2023/04/07 04:24:41;;;;;;;22.13;16.67;;;7.00;99.90;;;;;;5057077;28;20072;-85
2023/04/07 04:27:07;;;;;;;22.15;17.00;;;7.00;99.90;;;;;;5064125;28;20160;-86
2023/04/07 04:29:33;;;;;;;22.55;16.88;;;7.00;99.90;;;;;;5063846;28;20510;-85
2023/04/07 04:31:58;;;;;;;21.98;17.75;;;7.00;99.90;;;;;;5064205;28;20162;-85
2023/04/07 04:34:24;;;;;;;23.02;17.02;;;7.20;99.90;;;;;;5063755;28;20032;-85
2023/04/07 04:36:50;;;;;;;21.52;16.63;;;7.00;99.90;;;;;;5066006;28;20040;-85
2023/04/07 04:39:15;;;;;;;23.58;17.92;;;7.00;99.90;;;;;;5061934;28;20037;-85
2023/04/07 04:41:41;;;;;;;22.02;17.63;;;7.00;99.90;;;;;;5064878;28;20036;-86
2023/04/07 04:44:06;;;;;;;23.55;17.60;;;7.00;99.90;;;;;;5062222;28;20040;-86
2023/04/07 04:46:32;;;;;;;24.48;17.38;;;7.00;99.90;;;;;;5059633;28;20400;-86
2023/04/07 04:48:57;;;;;;;23.88;18.15;;;7.00;99.90;;;;;;5067633;28;20105;-86
2023/04/07 04:51:23;;;;;;;24.63;17.45;;;7.00;99.90;;;;;;5058746;28;20449;-85
2023/04/07 04:53:49;;;;;;;28.83;18.35;;;7.00;99.90;;;;;;5065767;28;20044;-85
2023/04/07 04:56:15;;;;;;;22.42;17.15;;;7.00;99.90;;;;;;5061317;28;20047;-85
2023/04/07 04:58:44;;;;;;;26.98;18.52;;;6.90;99.90;;;;;;5065077;28;20090;-86
2023/04/07 05:01:11;;;;;;;24.80;17.38;;;7.00;99.90;;;;;;5052623;28;20041;-86
2023/04/07 05:03:36;;;;;;;23.27;17.83;;;7.00;99.90;;;;;;5049656;28;20136;-87
2023/04/07 05:06:02;;;;;;;25.15;17.65;;;7.00;99.90;;;;;;5035552;28;20041;-85
2023/04/07 05:08:27;;;;;;;23.02;17.17;;;7.50;99.90;;;;;;5061686;28;20040;-85
2023/04/07 05:10:54;;;;;;;22.95;18.10;;;7.00;99.90;;;;;;5058412;28;20179;-84
2023/04/07 05:13:20;;;;;;;23.23;17.40;;;6.90;99.90;;;;;;5059521;28;20032;-85
2023/04/07 05:15:45;;;;;;;24.73;17.45;;;6.90;99.90;;;;;;5062795;28;20411;-85
2023/04/07 05:18:11;;;;;;;23.10;16.83;;;6.90;99.90;;;;;;5043028;28;20045;-86
2023/04/07 05:20:37;;;;;;;22.42;16.45;;;6.90;99.90;;;;;;5057908;28;20041;-85
2023/04/07 05:23:02;;;;;;;24.27;18.15;;;6.90;99.90;;;;;;5061604;28;20089;-86
2023/04/07 05:25:28;;;;;;;21.80;16.50;;;6.90;99.90;;;;;;5061204;28;20040;-85
2023/04/07 05:27:54;;;;;;;21.70;16.38;;;6.90;99.90;;;;;;5070222;28;20067;-85
2023/04/07 05:30:20;;;;;;;23.92;16.90;;;6.90;99.90;;;;;;5063203;28;20051;-83
2023/04/07 05:32:45;;;;;;;22.45;16.23;;;6.90;99.90;;;;;;5063580;28;20439;-84
2023/04/07 05:35:11;;;;;;;23.75;17.33;;;6.90;99.90;;;;;;5069221;28;20032;-84
2023/04/07 05:37:37;;;;;;;21.02;15.57;;;6.90;99.90;;;;;;5067738;28;20488;-85
2023/04/07 05:40:03;;;;;;;22.10;15.98;;;6.90;99.90;;;;;;5064736;28;20107;-85
2023/04/07 05:42:29;;;;;;;22.65;15.80;;;6.90;99.90;;;;;;5064500;28;20500;-86
2023/04/07 05:44:55;;;;;;;21.50;16.05;;;6.90;99.90;;;;;;5051284;28;20502;-85
2023/04/07 05:47:20;;;;;;;20.50;15.20;;;6.90;99.90;;;;;;5071219;28;20536;-86
2023/04/07 05:49:46;;;;;;;21.70;16.00;;;7.00;99.90;;;;;;5069706;28;20500;-85
2023/04/07 05:52:13;;;;;;;23.27;15.30;;;7.00;99.90;;;;;;5057535;28;20488;-86
2023/04/07 05:54:41;;;;;;;23.60;16.50;;;7.00;99.90;;;;;;5067420;28;20029;-86
2023/04/07 05:57:07;;;;;;;20.80;15.25;;;7.00;99.90;;;;;;5069311;28;20116;-86
2023/04/07 05:59:34;;;;;;;20.83;15.27;;;7.00;99.90;;;;;;5063977;28;20412;-85
2023/04/07 06:01:59;;;;;;;21.33;15.35;;;7.00;99.90;;;;;;5074741;28;20139;-86
2023/04/07 06:04:25;;;;;;;20.70;15.73;;;7.00;99.90;;;;;;5067869;28;20584;-86
2023/04/07 06:06:54;;;;;;;20.63;15.85;;;7.00;99.90;;;;;;5065634;28;20039;-86
2023/04/07 06:09:20;;;;;;;22.55;16.35;;;7.00;99.90;;;;;;5048281;28;20207;-86
2023/04/07 06:11:46;;;;;;;22.35;15.40;;;7.00;99.90;;;;;;5070479;28;20037;-85
2023/04/07 06:14:12;;;;;;;21.17;15.25;;;7.00;99.90;;;;;;5069730;28;20039;-86
2023/04/07 06:16:37;;;;;;;20.58;15.27;;;7.00;99.90;;;;;;5065712;28;20041;-86
2023/04/07 06:19:03;;;;;;;20.73;15.80;;;7.10;99.90;;;;;;5069921;28;20120;-86
2023/04/07 06:21:29;;;;;;;22.17;16.40;;;7.10;99.90;;;;;;5065372;28;20118;-86
2023/04/07 06:23:55;;;;;;;23.25;16.50;;;7.10;99.90;;;;;;5056255;28;20052;-85
2023/04/07 06:26:20;;;;;;;22.75;15.77;;;7.10;99.90;;;;;;5071440;28;20032;-86
2023/04/07 06:28:46;;;;;;;22.85;16.65;;;7.10;99.90;;;;;;5058244;28;20035;-84
2023/04/07 06:31:11;;;;;;;20.80;15.93;;;7.10;99.90;;;;;;5068371;28;20488;-86
2023/04/07 06:33:37;;;;;;;21.48;16.38;;;7.10;99.90;;;;;;5058382;28;20033;-85
2023/04/07 06:36:03;;;;;;;23.08;16.23;;;7.10;99.90;;;;;;5041853;28;20040;-86
2023/04/07 06:38:28;;;;;;;21.30;15.82;;;7.10;99.90;;;;;;5063172;28;20076;-85
2023/04/07 06:40:54;;;;;;;23.92;16.83;;;7.20;99.90;;;;;;5071995;28;20036;-84
2023/04/07 06:43:20;;;;;;;21.17;15.60;;;7.10;99.90;;;;;;5056135;28;20137;-85
2023/04/07 06:45:45;;;;;;;22.67;16.40;;;7.20;99.90;;;;;;5058854;28;20059;-85
2023/04/07 06:48:11;;;;;;;22.98;15.98;;;7.20;99.90;;;;;;5070601;28;20032;-85
2023/04/07 06:50:40;;;;;;;21.77;15.57;;;7.20;99.90;;;;;;5067755;28;20041;-85
2023/04/07 06:53:05;;;;;;;22.83;16.45;;;7.20;99.90;;;;;;5064348;28;20139;-84
2023/04/07 06:55:31;;;;;;;22.20;16.17;;;7.30;99.90;;;;;;5052016;28;20115;-85
2023/04/07 06:57:56;;;;;;;21.33;15.93;;;7.30;99.90;;;;;;5071161;28;20036;-85
2023/04/07 07:00:22;;;;;;;21.50;15.93;;;7.30;99.90;;;;;;5055189;28;20106;-85
2023/04/07 07:02:49;;;;;;;21.05;15.80;;;7.40;99.90;;;;;;5070233;28;20373;-85
2023/04/07 07:05:15;;;;;;;22.38;15.63;;;7.40;99.90;;;;;;5056650;28;20396;-85
2023/04/07 07:07:40;;;;;;;21.52;16.15;;;7.50;99.90;;;;;;5072328;28;20089;-86
2023/04/07 07:10:09;;;;;;;21.55;15.75;;;7.50;99.90;;;;;;5068467;28;20522;-85
2023/04/07 07:12:35;;;;;;;21.50;15.20;;;7.60;99.90;;;;;;5067262;28;20097;-85
2023/04/07 07:15:00;;;;;;;20.92;15.45;;;7.60;99.90;;;;;;5061100;28;20037;-86
2023/04/07 07:17:26;;;;;;;20.63;15.50;;;7.60;99.90;;;;;;5048922;28;20040;-85
2023/04/07 07:19:51;;;;;;;20.60;14.80;;;7.70;99.90;;;;;;5047292;28;20033;-85
2023/04/07 07:22:17;;;;;;;19.95;14.60;;;7.70;99.90;;;;;;5057415;28;20068;-86
2023/04/07 07:24:43;;;;;;;21.55;15.00;;;7.80;99.90;;;;;;5063983;28;20045;-86
2023/04/07 07:27:08;;;;;;;18.98;14.23;;;7.90;99.90;;;;;;5063064;28;20400;-86
2023/04/07 07:29:34;;;;;;;22.23;15.73;;;7.90;99.90;;;;;;5069983;28;20041;-86
2023/04/07 07:31:59;;;;;;;20.15;14.95;;;8.10;99.90;;;;;;5042348;28;20353;-86
2023/04/07 07:34:25;;;;;;;18.75;14.25;;;8.00;99.90;;;;;;5059936;28;20166;-86
2023/04/07 07:36:51;;;;;;;20.10;15.38;;;8.00;99.90;;;;;;5059701;28;20032;-85
2023/04/07 07:39:16;;;;;;;20.67;15.10;;;8.10;99.90;;;;;;5057317;28;20037;-85
2023/04/07 07:41:42;;;;;;;19.85;15.32;;;8.20;99.90;;;;;;5064160;28;20036;-86
2023/04/07 07:44:07;;;;;;;21.05;15.68;;;8.30;99.90;;;;;;5066503;28;20032;-85
2023/04/07 07:46:33;;;;;;;19.48;14.57;;;8.40;99.90;;;;;;5055882;28;20033;-85
2023/04/07 07:48:59;;;;;;;19.30;14.95;;;8.40;99.90;;;;;;5069029;28;20059;-86
2023/04/07 07:51:24;;;;;;;19.45;14.63;;;8.50;99.90;;;;;;5045815;28;20142;-85
2023/04/07 07:53:50;;;;;;;20.58;15.23;;;8.70;99.90;;;;;;5063996;28;20348;-85
2023/04/07 07:56:15;;;;;;;17.50;13.82;;;8.50;99.90;;;;;;5059640;28;20037;-85
2023/04/07 07:58:44;;;;;;;18.50;14.48;;;8.50;99.90;;;;;;5060142;28;20045;-85
2023/04/07 08:01:10;;;;;;;17.13;13.23;;;8.60;99.90;;;;;;5063666;28;20040;-84
2023/04/07 08:03:35;;;;;;;16.65;13.50;;;8.60;99.90;;;;;;5070889;28;20037;-85
2023/04/07 08:06:02;;;;;;;17.75;13.32;;;8.60;99.90;;;;;;5071172;28;20045;-84
2023/04/07 08:08:27;;;;;;;17.10;13.10;;;8.60;99.90;;;;;;5072210;28;20086;-83
2023/04/07 08:10:53;;;;;;;16.45;12.57;;;8.50;99.90;;;;;;5072714;28;20446;-83
2023/04/07 08:13:18;;;;;;;15.52;12.05;;;8.60;99.90;;;;;;5078193;28;20047;-84
2023/04/07 08:15:44;;;;;;;14.98;11.90;;;8.60;99.90;;;;;;5077356;28;20037;-85
2023/04/07 08:18:09;;;;;;;17.70;13.13;;;8.70;99.90;;;;;;5056263;28;20512;-84
2023/04/07 08:20:35;;;;;;;16.67;12.95;;;8.70;99.90;;;;;;5077929;28;20032;-84
2023/04/07 08:23:01;;;;;;;16.45;12.25;;;8.70;99.90;;;;;;5073294;28;20081;-85
2023/04/07 08:25:27;;;;;;;17.27;12.73;;;8.70;99.90;;;;;;5058767;28;20036;-84
2023/04/07 08:27:53;;;;;;;15.50;12.18;;;8.60;99.90;;;;;;5077641;28;20086;-84
2023/04/07 08:30:21;;;;;;;14.57;11.55;;;8.70;99.90;;;;;;5074776;28;20040;-84
2023/04/07 08:32:47;;;;;;;15.45;12.07;;;8.60;99.90;;;;;;5086879;28;20038;-84
2023/04/07 08:35:13;;;;;;;15.15;11.80;;;8.70;99.90;;;;;;5073338;28;20110;-84
2023/04/07 08:37:43;;;;;;;14.63;10.73;;;8.70;99.90;;;;;;5066863;28;20480;-84
2023/04/07 08:40:09;;;;;;;15.82;11.73;;;8.70;99.90;;;;;;5055094;28;20036;-84
2023/04/07 08:42:40;;;;;;;14.75;11.52;;;8.80;99.90;;;;;;5059841;28;20119;-85
2023/04/07 08:45:12;;;;;;;14.77;11.50;;;8.90;99.90;;;;;;5058137;28;20044;-84
2023/04/07 08:47:43;;;;;;;14.07;10.70;;;9.00;99.90;;;;;;5042855;28;20813;-85
2023/04/07 08:50:10;;;;;;;13.90;10.45;;;9.00;99.90;;;;;;5062564;28;20048;-86
2023/04/07 08:52:48;;;;;;;13.05;9.98;;;9.00;99.90;;;;;;5046172;28;20064;-85
2023/04/07 08:55:14;;;;;;;13.40;9.85;;;9.10;99.90;;;;;;5064659;28;20133;-85
2023/04/07 08:57:41;;;;;;;12.60;10.50;;;9.10;99.90;;;;;;5063990;28;20090;-84
2023/04/07 09:00:07;;;;;;;12.27;9.65;;;9.00;99.90;;;;;;5060171;28;20036;-85
2023/04/07 09:02:35;;;;;;;14.82;11.10;;;9.00;99.90;;;;;;5062898;28;20044;-83
2023/04/07 09:05:06;;;;;;;14.60;11.10;;;9.10;99.90;;;;;;5059534;28;20083;-86
2023/04/07 09:07:37;;;;;;;14.15;10.93;;;9.10;99.90;;;;;;5058188;28;20037;-86
2023/04/07 09:10:03;;;;;;;15.45;12.05;;;9.10;99.90;;;;;;5063755;28;20045;-85
2023/04/07 09:12:30;;;;;;;14.98;11.23;;;9.20;99.90;;;;;;5064157;28;20153;-84
2023/04/07 09:14:56;;;;;;;15.20;12.30;;;9.30;99.90;;;;;;5072418;28;20076;-85
2023/04/07 09:17:27;;;;;;;15.70;12.73;;;9.50;99.90;;;;;;5057707;28;20044;-85
2023/04/07 09:19:58;;;;;;;15.85;12.00;;;9.60;99.90;;;;;;5049941;28;20041;-84
2023/04/07 09:22:46;;;;;;;16.50;12.77;;;9.60;99.90;;;;;;5070222;28;20111;-83
2023/04/07 09:25:18;;;;;;;14.27;11.45;;;9.70;99.90;;;;;;5064765;28;20102;-84
2023/04/07 09:28:01;;;;;;;16.23;11.93;;;9.80;99.90;;;;;;5060795;28;20491;-82
2023/04/07 09:30:28;;;;;;;14.27;11.37;;;9.80;99.90;;;;;;5068866;28;20523;-85
2023/04/07 09:32:54;;;;;;;17.05;12.35;;;9.80;99.90;;;;;;5070878;28;20342;-85
2023/04/07 09:35:22;;;;;;;16.88;13.23;;;9.80;99.90;;;;;;5052263;28;20029;-85
2023/04/07 09:38:05;;;;;;;16.33;12.40;;;9.80;99.90;;;;;;5056862;28;20124;-85
2023/04/07 09:40:31;;;;;;;15.50;11.73;;;9.90;99.90;;;;;;5067837;28;20388;-86
2023/04/07 09:42:57;;;;;;;16.50;12.45;;;10.90;99.90;;;;;;5047691;28;20049;-86
2023/04/07 09:45:27;;;;;;;15.93;12.45;;;10.30;99.90;;;;;;5064931;28;20036;-85
2023/04/07 09:47:53;;;;;;;16.40;12.82;;;10.90;99.90;;;;;;5069265;28;20155;-86
2023/04/07 09:50:34;;;;;;;16.20;12.73;;;10.60;99.90;;;;;;5050080;28;20092;-85
2023/04/07 09:53:01;;;;;;;15.00;12.48;;;10.70;99.90;;;;;;5069887;28;20063;-83
2023/04/07 09:55:27;;;;;;;15.32;10.98;;;10.80;99.90;;;;;;5072645;28;20032;-85
2023/04/07 09:57:57;;;;;;;14.20;11.02;;;10.70;99.90;;;;;;5064468;28;20119;-85
2023/04/07 10:00:23;;;;;;;13.30;10.73;;;10.80;99.90;;;;;;5068940;28;20499;-83
2023/04/07 10:02:50;;;;;;;13.75;10.80;;;10.80;99.90;;;;;;5073429;28;20041;-83
2023/04/07 10:05:16;;;;;;;15.98;11.18;;;10.80;99.90;;;;;;5073230;28;20506;-84
2023/04/07 10:07:42;;;;;;;13.75;10.93;;;10.70;99.90;;;;;;5062469;28;20033;-85
2023/04/07 10:10:08;;;;;;;12.98;10.95;;;10.60;99.90;;;;;;5062719;28;20043;-84
2023/04/07 10:12:36;;;;;;;14.45;11.43;;;10.60;99.90;;;;;;5064604;28;20385;-84
2023/04/07 10:15:03;;;;;;;15.25;11.85;;;10.40;99.90;;;;;;5069225;28;20464;-85
2023/04/07 10:17:30;;;;;;;15.15;12.05;;;10.30;99.90;;;;;;5059940;28;20404;-84
2023/04/07 10:19:58;;;;;;;16.42;12.20;;;10.20;99.90;;;;;;5061476;28;20214;-84
2023/04/07 10:22:25;;;;;;;14.68;11.27;;;10.10;99.90;;;;;;5076166;28;20040;-84
2023/04/07 10:25:08;;;;;;;14.38;11.60;;;10.10;99.90;;;;;;5071303;28;20540;-85
2023/04/07 10:27:58;;;;;;;14.27;10.95;;;10.10;99.90;;;;;;5068379;28;20060;-86
2023/04/07 10:30:29;;;;;;;13.40;10.95;;;10.10;99.90;;;;;;5061754;28;20044;-84
2023/04/07 10:32:55;;;;;;;13.25;10.18;;;10.10;99.90;;;;;;5069491;28;20500;-85
2023/04/07 10:35:21;;;;;;;12.55;10.18;;;10.10;99.90;;;;;;5066688;28;20072;-83
2023/04/07 10:38:05;;;;;;;14.90;11.00;;;10.40;99.90;;;;;;5074254;28;20037;-85
2023/04/07 10:40:31;;;;;;;12.27;9.60;;;10.70;99.90;;;;;;5068031;28;20047;-84
2023/04/07 10:42:57;;;;;;;11.95;9.45;;;10.90;99.90;;;;;;5073845;28;20037;-84
2023/04/07 10:45:45;;;;;;;11.95;9.07;;;11.10;99.90;;;;;;5068834;28;20033;-83
2023/04/07 10:48:12;;;;;;;10.77;8.27;;;11.20;99.90;;;;;;5069584;28;20081;-83
2023/04/07 10:50:38;;;;;;;9.98;8.10;;;11.20;99.90;;;;;;5063986;28;20052;-84
2023/04/07 10:53:14;;;;;;;10.30;7.65;;;11.20;99.90;;;;;;5072612;28;20044;-84
2023/04/07 10:55:46;;;;;;;10.52;8.48;;;11.20;99.90;;;;;;5074570;28;20381;-83
2023/04/07 10:58:24;;;;;;;11.43;8.77;;;11.10;99.90;;;;;;5069746;28;20460;-82
2023/04/07 11:01:08;;;;;;;10.32;7.85;;;11.10;99.90;;;;;;5075303;28;20400;-83
2023/04/07 11:03:41;;;;;;;9.90;8.27;;;11.10;99.90;;;;;;5072761;28;20399;-83
2023/04/07 11:06:11;;;;;;;10.80;8.40;;;11.00;99.90;;;;;;5068976;28;20436;-83
2023/04/07 11:08:39;;;;;;;10.32;8.25;;;11.00;99.90;;;;;;5069727;28;20052;-82
2023/04/07 11:11:08;;;;;;;11.18;8.85;;;10.90;99.90;;;;;;5072693;28;20595;-84
2023/04/07 11:13:45;;;;;;;10.05;8.20;;;10.90;99.90;;;;;;5074347;28;20086;-83
2023/04/07 11:16:11;;;;;;;11.30;8.90;;;10.80;99.90;;;;;;5072890;28;20059;-83
2023/04/07 11:18:38;;;;;;;12.45;9.35;;;10.90;99.90;;;;;;5073861;28;20036;-84
2023/04/07 11:21:05;;;;;;;10.52;8.73;;;10.90;99.90;;;;;;5076053;28;20040;-82
2023/04/07 11:23:41;;;;;;;12.35;9.65;;;11.00;99.90;;;;;;5074192;28;20036;-82
2023/04/07 11:26:08;;;;;;;11.38;9.43;;;11.10;99.90;;;;;;5053449;28;20381;-82
2023/04/07 11:28:44;;;;;;;11.50;9.60;;;11.20;99.90;;;;;;5072811;28;20040;-82
2023/04/07 11:31:10;;;;;;;11.40;9.52;;;11.30;99.90;;;;;;5073312;28;20052;-82
2023/04/07 11:33:37;;;;;;;11.70;9.93;;;11.40;99.90;;;;;;5073488;28;20055;-81
2023/04/07 11:36:05;;;;;;;13.40;10.02;;;11.40;99.90;;;;;;5068269;28;20060;-82
2023/04/07 11:38:37;;;;;;;14.05;10.10;;;11.30;99.90;;;;;;5056930;28;20047;-84
2023/04/07 11:41:14;;;;;;;12.18;9.73;;;11.40;99.90;;;;;;5070081;28;20512;-80
2023/04/07 11:43:42;;;;;;;11.73;9.70;;;11.40;99.90;;;;;;5063108;28;20204;-83
2023/04/07 11:46:13;;;;;;;11.50;9.35;;;11.50;99.90;;;;;;5064024;28;20033;-82
2023/04/07 11:48:41;;;;;;;12.10;9.38;;;11.60;99.90;;;;;;5066955;28;20528;-83
2023/04/07 11:51:18;;;;;;;11.73;9.02;;;11.70;99.90;;;;;;5038104;28;20525;-83
2023/04/07 11:53:44;;;;;;;12.27;9.60;;;11.80;99.90;;;;;;5057852;28;20500;-82
2023/04/07 11:56:15;;;;;;;11.68;9.27;;;11.90;99.90;;;;;;5052167;28;20518;-82
2023/04/07 11:58:48;;;;;;;11.35;8.95;;;12.10;99.90;;;;;;5058537;28;20040;-82
2023/04/07 12:01:14;;;;;;;13.50;10.10;;;12.20;99.90;;;;;;5055898;28;20055;-83
2023/04/07 12:04:15;;;;;;;10.55;8.68;;;12.20;99.90;;;;;;5054379;28;20071;-82
2023/04/07 12:06:41;;;;;;;10.80;8.43;;;12.10;99.90;;;;;;5035428;28;20059;-81
2023/04/07 12:09:28;;;;;;;10.38;8.75;;;12.10;99.90;;;;;;5058513;28;20055;-84
2023/04/07 12:11:56;;;;;;;11.02;8.68;;;12.10;99.90;;;;;;5070390;28;20418;-83
2023/04/07 12:14:22;;;;;;;8.77;7.55;;;12.20;99.90;;;;;;5061624;28;20040;-81
2023/04/07 12:16:47;;;;;;;10.80;8.40;;;12.30;99.90;;;;;;5057505;28;20511;-83
2023/04/07 12:19:13;;;;;;;8.90;7.35;;;12.60;99.90;;;;;;5059963;28;20052;-81
2023/04/07 12:21:38;;;;;;;10.85;8.52;;;12.80;99.90;;;;;;5064515;28;20037;-81
2023/04/07 12:24:04;;;;;;;11.20;8.48;;;13.10;99.90;;;;;;5072337;28;20090;-82
2023/04/07 12:26:30;;;;;;;9.45;7.93;;;13.30;99.90;;;;;;5072150;28;20088;-82
2023/04/07 12:28:57;;;;;;;9.98;7.88;;;13.50;99.90;;;;;;5072772;28;20149;-83
2023/04/07 12:31:23;;;;;;;8.63;7.40;;;13.50;99.90;;;;;;5072965;28;20055;-80
2023/04/07 12:33:48;;;;;;;9.27;7.53;;;13.40;99.90;;;;;;5074950;28;20044;-82
2023/04/07 12:36:15;;;;;;;8.98;7.82;;;13.40;99.90;;;;;;5072516;28;20047;-82
2023/04/07 12:38:41;;;;;;;10.18;7.50;;;13.40;99.90;;;;;;5066457;28;20132;-82